Time;durP1;ratioP1;P1;durP2;ratioP2;P2;SDS_P1;SDS_P2;PMS_P1;PMS_P2;Temp;Humidity;BMP_temperature;BMP_pressure;BME280_temperature;BME280_humidity;BME280_pressure;Samples;Min_cycle;Max_cycle;Signal;HPM_P1;HPM_P2
2022/11/02 00:00:02;;;;;;;2.23;1.70;;;15.90;99.90;;;;;;5035055;28;20199;-65
2022/11/02 00:02:38;;;;;;;1.87;1.77;;;15.90;99.90;;;;;;5041484;28;20210;-64
2022/11/02 00:05:05;;;;;;;1.47;1.37;;;15.90;99.90;;;;;;5036900;28;20197;-65
2022/11/02 00:07:33;;;;;;;1.40;1.30;;;16.00;99.90;;;;;;5041818;28;20196;-65
2022/11/02 00:10:00;;;;;;;2.17;1.63;;;16.00;99.90;;;;;;5040853;28;20206;-64
2022/11/02 00:12:27;;;;;;;1.73;1.60;;;16.00;99.90;;;;;;5031863;28;20550;-65
2022/11/02 00:14:54;;;;;;;1.70;1.60;;;16.00;99.90;;;;;;5032156;28;20209;-65
2022/11/02 00:17:23;;;;;;;1.97;1.83;;;16.00;99.90;;;;;;5039174;28;20266;-64
2022/11/02 00:19:51;;;;;;;2.20;2.00;;;16.00;99.90;;;;;;5047629;28;20212;-65
2022/11/02 00:22:18;;;;;;;2.20;2.00;;;16.00;99.90;;;;;;5047952;28;20699;-64
2022/11/02 00:24:45;;;;;;;3.63;2.10;;;16.00;99.90;;;;;;5045743;28;20235;-65
2022/11/02 00:27:12;;;;;;;4.93;2.87;;;16.00;99.90;;;;;;5040011;28;20210;-65
2022/11/02 00:29:39;;;;;;;3.07;2.77;;;16.00;99.90;;;;;;5029019;28;20201;-65
2022/11/02 00:32:07;;;;;;;4.00;2.80;;;16.00;99.90;;;;;;5038754;28;20190;-65
2022/11/02 00:34:35;;;;;;;3.33;2.60;;;16.00;99.90;;;;;;5046853;28;20787;-64
2022/11/02 00:37:02;;;;;;;2.77;2.50;;;16.00;99.90;;;;;;5031773;28;20207;-64
2022/11/02 00:39:30;;;;;;;3.57;3.00;;;16.00;99.90;;;;;;5036867;28;20691;-64
2022/11/02 00:41:57;;;;;;;4.77;3.20;;;15.90;99.90;;;;;;5037751;28;20201;-64
2022/11/02 00:44:24;;;;;;;3.30;3.00;;;16.00;99.90;;;;;;5036218;28;20699;-64
2022/11/02 00:46:51;;;;;;;4.50;2.80;;;15.90;99.90;;;;;;5047804;28;20212;-64
2022/11/02 00:49:18;;;;;;;5.27;3.40;;;16.00;99.90;;;;;;5044767;28;20189;-64
2022/11/02 00:51:47;;;;;;;3.67;3.37;;;15.90;99.90;;;;;;5042544;28;20263;-64
2022/11/02 00:54:16;;;;;;;5.60;3.60;;;16.00;99.90;;;;;;5022836;28;20285;-64
2022/11/02 00:56:43;;;;;;;2.83;2.57;;;15.90;99.90;;;;;;5035947;28;20199;-64
2022/11/02 00:59:10;;;;;;;3.67;2.83;;;15.90;99.90;;;;;;5025247;28;20222;-65
2022/11/02 01:01:37;;;;;;;3.27;2.70;;;16.00;99.90;;;;;;5037754;28;20527;-65
2022/11/02 01:04:05;;;;;;;3.27;2.60;;;16.00;99.90;;;;;;5042420;28;20302;-63
2022/11/02 01:06:32;;;;;;;4.83;3.83;;;16.00;99.90;;;;;;5040224;28;20650;-64
2022/11/02 01:09:01;;;;;;;3.63;3.30;;;16.00;99.90;;;;;;5044820;28;20600;-63
2022/11/02 01:11:28;;;;;;;2.97;2.73;;;16.00;99.90;;;;;;5047325;28;20196;-64
2022/11/02 01:13:55;;;;;;;3.43;2.77;;;16.00;99.90;;;;;;5045464;28;20200;-64
2022/11/02 01:16:22;;;;;;;3.00;2.70;;;15.90;99.90;;;;;;5046393;28;20202;-64
2022/11/02 01:18:52;;;;;;;3.07;2.53;;;16.00;99.90;;;;;;5036988;28;20216;-64
2022/11/02 01:21:19;;;;;;;2.63;2.43;;;16.00;99.90;;;;;;5043522;28;21438;-64
2022/11/02 01:23:46;;;;;;;2.67;2.40;;;16.00;99.90;;;;;;5041532;28;20292;-64
2022/11/02 01:26:15;;;;;;;3.90;2.63;;;15.90;99.90;;;;;;5020346;28;20241;-64
2022/11/02 01:28:43;;;;;;;3.60;2.60;;;15.90;99.90;;;;;;5044042;28;20191;-64
2022/11/02 01:31:11;;;;;;;3.00;2.70;;;15.70;99.90;;;;;;5041290;28;20210;-64
2022/11/02 01:33:43;;;;;;;3.37;2.90;;;15.90;99.90;;;;;;5042489;28;20196;-64
2022/11/02 01:36:10;;;;;;;5.10;3.60;;;15.90;99.90;;;;;;5035512;28;20652;-64
2022/11/02 01:38:38;;;;;;;3.00;2.67;;;15.90;99.90;;;;;;5037379;28;20212;-64
2022/11/02 01:41:05;;;;;;;4.07;3.40;;;15.90;99.90;;;;;;5035962;28;20243;-65
2022/11/02 01:43:36;;;;;;;4.30;3.43;;;15.90;99.90;;;;;;5039003;28;20294;-66
2022/11/02 01:46:07;;;;;;;5.57;3.57;;;15.90;99.90;;;;;;5039744;28;20220;-64
2022/11/02 01:48:37;;;;;;;3.30;2.97;;;15.90;99.90;;;;;;5045443;28;20185;-64
2022/11/02 01:51:09;;;;;;;3.17;2.80;;;15.90;99.90;;;;;;5042224;28;20210;-64
2022/11/02 01:53:39;;;;;;;3.90;2.53;;;15.90;99.90;;;;;;5037210;28;20335;-64
2022/11/02 01:56:12;;;;;;;3.23;2.77;;;15.90;99.90;;;;;;5028562;28;20303;-64
2022/11/02 01:58:42;;;;;;;4.43;3.47;;;15.80;99.90;;;;;;5032296;28;20218;-65
2022/11/02 02:01:10;;;;;;;2.73;2.53;;;15.80;99.90;;;;;;5041150;28;20199;-64
2022/11/02 02:03:37;;;;;;;4.37;3.97;;;15.80;99.90;;;;;;5042323;28;20295;-65
2022/11/02 02:06:10;;;;;;;5.13;4.07;;;15.80;99.90;;;;;;5042103;28;20199;-64
2022/11/02 02:08:40;;;;;;;4.30;3.70;;;15.80;99.90;;;;;;5041834;28;20213;-64
2022/11/02 02:11:25;;;;;;;5.17;4.10;;;15.80;99.90;;;;;;5023706;28;20203;-64
2022/11/02 02:13:54;;;;;;;6.73;3.20;;;15.80;99.90;;;;;;5041185;28;20217;-64
2022/11/02 02:16:42;;;;;;;3.30;2.90;;;15.70;99.90;;;;;;5044160;28;20200;-64
2022/11/02 02:19:23;;;;;;;4.73;3.57;;;15.70;99.90;;;;;;5024483;28;20576;-64
2022/11/02 02:22:06;;;;;;;4.87;3.73;;;15.70;99.90;;;;;;5047976;28;20297;-64
2022/11/02 02:24:49;;;;;;;5.87;4.20;;;15.70;99.90;;;;;;4990442;28;1518301;-64
2022/11/02 02:27:22;;;;;;;4.60;4.10;;;15.70;99.90;;;;;;5024412;28;20317;-64
2022/11/02 02:30:04;;;;;;;5.33;3.00;;;15.60;99.90;;;;;;5043156;28;20655;-64
2022/11/02 02:32:43;;;;;;;4.13;3.27;;;15.60;99.90;;;;;;5044439;28;20192;-65
2022/11/02 02:35:22;;;;;;;4.13;3.13;;;15.60;99.90;;;;;;5040185;28;20236;-64
2022/11/02 02:37:55;;;;;;;2.70;2.40;;;15.60;99.90;;;;;;5043560;28;20215;-65
2022/11/02 02:40:31;;;;;;;2.63;2.43;;;15.60;99.90;;;;;;5040193;28;20623;-64
2022/11/02 02:43:04;;;;;;;5.13;3.47;;;15.60;99.90;;;;;;5022875;28;20686;-65
2022/11/02 02:45:37;;;;;;;4.07;2.70;;;15.60;99.90;;;;;;5040655;28;20192;-64
2022/11/02 02:48:10;;;;;;;2.83;2.40;;;15.60;99.90;;;;;;5040917;28;20191;-64
2022/11/02 02:50:41;;;;;;;3.30;2.40;;;15.60;99.90;;;;;;5048193;28;20686;-65
2022/11/02 02:53:10;;;;;;;4.03;2.60;;;15.50;99.90;;;;;;5028574;28;20200;-64
2022/11/02 02:55:43;;;;;;;4.17;2.37;;;15.50;99.90;;;;;;5040056;28;20216;-65
2022/11/02 02:58:17;;;;;;;3.33;2.60;;;15.50;99.90;;;;;;5049595;28;20195;-65
2022/11/02 03:00:46;;;;;;;2.97;2.63;;;15.50;99.90;;;;;;5034735;28;20194;-66
2022/11/02 03:03:18;;;;;;;5.63;3.43;;;15.50;99.90;;;;;;5035508;28;20271;-66
2022/11/02 03:06:00;;;;;;;8.63;4.13;;;15.50;99.90;;;;;;5039871;28;20295;-64
2022/11/02 03:08:28;;;;;;;5.17;3.33;;;15.40;99.90;;;;;;5028583;28;20272;-64
2022/11/02 03:11:04;;;;;;;3.40;3.03;;;15.40;99.90;;;;;;5026467;28;20553;-64
2022/11/02 03:13:42;;;;;;;6.87;3.33;;;15.40;99.90;;;;;;5022284;28;20202;-67
2022/11/02 03:16:25;;;;;;;2.83;2.53;;;15.40;99.90;;;;;;5029071;28;20573;-65
2022/11/02 03:19:00;;;;;;;8.03;4.13;;;15.40;99.90;;;;;;5040952;28;20570;-65
2022/11/02 03:21:34;;;;;;;3.27;2.97;;;15.30;99.90;;;;;;5046583;28;20595;-65
2022/11/02 03:24:09;;;;;;;4.27;3.30;;;15.30;99.90;;;;;;5033213;28;21024;-65
2022/11/02 03:26:45;;;;;;;4.80;2.87;;;15.30;99.90;;;;;;5044862;28;20197;-65
2022/11/02 03:29:16;;;;;;;5.90;3.87;;;15.30;99.90;;;;;;5041684;28;20273;-65
2022/11/02 03:31:53;;;;;;;3.83;3.40;;;15.30;99.90;;;;;;5030600;28;20294;-64
2022/11/02 03:34:25;;;;;;;3.37;3.07;;;15.20;99.90;;;;;;5042942;28;20197;-65
2022/11/02 03:37:00;;;;;;;4.37;3.07;;;15.20;99.90;;;;;;5040126;28;20279;-65
2022/11/02 03:39:34;;;;;;;3.80;2.93;;;15.30;99.90;;;;;;5043191;28;20226;-65
2022/11/02 03:42:04;;;;;;;6.23;3.70;;;15.20;99.90;;;;;;5022119;28;20286;-65
2022/11/02 03:44:37;;;;;;;7.43;4.30;;;15.20;99.90;;;;;;5041821;28;20553;-64
2022/11/02 03:47:10;;;;;;;5.60;3.73;;;15.20;99.90;;;;;;5041080;28;20283;-65
2022/11/02 03:49:41;;;;;;;5.07;3.30;;;15.20;99.90;;;;;;5041849;28;20561;-65
2022/11/02 03:52:11;;;;;;;3.83;3.40;;;15.20;99.90;;;;;;5030824;28;20253;-64
2022/11/02 03:54:44;;;;;;;3.93;3.30;;;15.20;99.90;;;;;;5039555;28;20222;-66
2022/11/02 03:57:17;;;;;;;4.37;3.30;;;15.20;99.90;;;;;;5036123;28;20240;-65
2022/11/02 03:59:44;;;;;;;4.13;2.73;;;15.20;99.90;;;;;;5046925;28;20209;-63
2022/11/02 04:02:15;;;;;;;3.80;2.90;;;15.20;99.90;;;;;;5029591;28;20211;-63
2022/11/02 04:04:51;;;;;;;4.83;3.10;;;15.20;99.90;;;;;;5038999;28;20289;-64
2022/11/02 04:07:24;;;;;;;3.00;2.70;;;15.20;99.90;;;;;;5037525;28;20692;-64
2022/11/02 04:09:51;;;;;;;3.70;3.40;;;15.20;99.90;;;;;;5039929;28;20721;-64
2022/11/02 04:15:04;;;;;;;3.60;3.30;;;15.20;99.90;;;;;;5042307;28;20195;-64
2022/11/02 04:20:17;;;;;;;3.60;3.30;;;15.10;99.90;;;;;;5034370;28;20844;-64
2022/11/02 04:25:29;;;;;;;6.43;4.67;;;15.10;99.90;;;;;;5028507;28;20197;-64
2022/11/02 04:28:15;;;;;;;7.80;4.90;;;15.10;99.90;;;;;;5028299;28;20198;-63
2022/11/02 04:30:58;;;;;;;7.17;4.00;;;15.10;99.90;;;;;;5019820;28;20269;-63
2022/11/02 04:33:32;;;;;;;8.30;5.00;;;15.10;99.90;;;;;;5038363;28;20199;-63
2022/11/02 04:36:15;;;;;;;6.00;4.90;;;15.10;99.90;;;;;;5018510;28;20199;-63
2022/11/02 04:38:42;;;;;;;6.13;4.53;;;15.10;99.90;;;;;;5019797;28;20194;-64
2022/11/02 04:44:30;;;;;;;8.73;3.83;;;15.10;99.90;;;;;;5010890;28;20186;-64
2022/11/02 04:47:02;;;;;;;5.63;3.87;;;15.00;99.90;;;;;;5028375;28;20206;-64
2022/11/02 04:49:34;;;;;;;5.27;3.80;;;15.00;99.90;;;;;;5035344;28;20194;-64
2022/11/02 04:52:01;;;;;;;8.13;5.10;;;15.10;99.90;;;;;;5029734;28;20195;-64
2022/11/02 04:54:30;;;;;;;8.77;4.83;;;15.00;99.90;;;;;;5032803;28;20199;-64
2022/11/02 04:57:01;;;;;;;7.23;4.90;;;15.00;99.90;;;;;;5042341;28;20285;-64
2022/11/02 04:59:30;;;;;;;9.50;4.77;;;15.00;99.90;;;;;;5032916;28;20701;-65
2022/11/02 05:01:58;;;;;;;6.00;4.77;;;15.00;99.90;;;;;;5031896;28;20267;-64
2022/11/02 05:04:26;;;;;;;5.03;4.17;;;14.90;99.90;;;;;;5028300;28;20194;-65
2022/11/02 05:06:54;;;;;;;5.63;4.53;;;14.90;99.90;;;;;;5043151;28;20229;-65
2022/11/02 05:09:23;;;;;;;4.20;3.80;;;14.90;99.90;;;;;;5035043;28;20840;-64
2022/11/02 05:11:50;;;;;;;6.23;4.37;;;14.90;99.90;;;;;;5044082;28;20202;-64
2022/11/02 05:14:17;;;;;;;4.00;3.70;;;14.90;99.90;;;;;;5036643;28;20297;-64
2022/11/02 05:16:45;;;;;;;4.10;3.70;;;14.90;99.90;;;;;;5036859;28;20268;-65
2022/11/02 05:19:14;;;;;;;9.87;5.33;;;14.90;99.90;;;;;;5029536;28;20716;-64
2022/11/02 05:21:41;;;;;;;7.90;5.67;;;14.90;99.90;;;;;;5042750;28;20210;-64
2022/11/02 05:24:10;;;;;;;11.57;6.70;;;14.90;99.90;;;;;;5018143;28;20647;-64
2022/11/02 05:26:37;;;;;;;12.93;7.10;;;14.90;99.90;;;;;;5025959;28;20242;-64
2022/11/02 05:29:05;;;;;;;12.20;6.63;;;14.90;99.90;;;;;;5025386;28;20556;-65
2022/11/02 05:31:34;;;;;;;11.00;6.47;;;14.80;99.90;;;;;;5019088;28;20211;-66
2022/11/02 05:34:01;;;;;;;7.60;5.80;;;14.80;99.90;;;;;;5024724;28;20667;-65
2022/11/02 05:36:29;;;;;;;7.70;5.50;;;14.80;99.90;;;;;;5032907;28;20227;-65
2022/11/02 05:38:57;;;;;;;7.00;4.57;;;14.80;99.90;;;;;;5033971;28;20292;-65
2022/11/02 05:41:27;;;;;;;5.90;5.03;;;14.80;99.90;;;;;;5021035;28;20252;-66
2022/11/02 05:43:56;;;;;;;6.20;4.80;;;14.80;99.90;;;;;;5024562;28;20280;-66
2022/11/02 05:46:25;;;;;;;8.57;5.03;;;14.80;99.90;;;;;;5019021;28;20289;-66
2022/11/02 05:48:52;;;;;;;6.73;5.40;;;14.80;99.90;;;;;;5020596;28;20191;-65
2022/11/02 05:51:20;;;;;;;9.57;6.80;;;14.80;99.90;;;;;;5019370;28;20504;-64
2022/11/02 05:53:47;;;;;;;7.30;6.00;;;14.70;99.90;;;;;;5016975;28;20207;-64
2022/11/02 05:56:16;;;;;;;7.63;5.77;;;14.70;99.90;;;;;;5018520;28;20217;-63
2022/11/02 05:58:45;;;;;;;10.17;6.80;;;14.70;99.90;;;;;;5018440;28;20654;-63
2022/11/02 06:01:12;;;;;;;10.90;7.20;;;14.70;99.90;;;;;;5012799;28;20223;-65
2022/11/02 06:03:39;;;;;;;8.50;5.80;;;14.70;99.90;;;;;;5023432;28;20650;-65
2022/11/02 06:06:11;;;;;;;6.03;4.80;;;14.60;99.90;;;;;;5019961;28;20241;-64
2022/11/02 06:08:39;;;;;;;5.67;4.33;;;14.60;99.90;;;;;;5018621;28;20195;-63
2022/11/02 06:11:07;;;;;;;6.07;4.60;;;14.70;99.90;;;;;;5019159;28;20194;-63
2022/11/02 06:13:34;;;;;;;6.07;4.70;;;14.70;99.90;;;;;;5017870;28;20605;-63
2022/11/02 06:16:04;;;;;;;4.30;3.90;;;14.70;99.90;;;;;;5017488;28;20293;-63
2022/11/02 06:18:32;;;;;;;5.93;4.73;;;14.70;99.90;;;;;;5017431;28;20661;-63
2022/11/02 06:21:00;;;;;;;4.10;3.70;;;14.70;99.90;;;;;;5021067;28;20301;-64
2022/11/02 06:23:28;;;;;;;5.53;4.00;;;14.70;99.90;;;;;;5021601;28;20231;-64
2022/11/02 06:25:56;;;;;;;10.40;6.43;;;14.70;99.90;;;;;;5040755;28;20190;-64
2022/11/02 06:28:25;;;;;;;9.27;5.50;;;14.70;99.90;;;;;;5037695;28;20194;-64
2022/11/02 06:30:52;;;;;;;6.77;5.07;;;14.70;99.90;;;;;;5027474;28;20666;-63
2022/11/02 06:33:21;;;;;;;7.67;5.07;;;14.70;99.90;;;;;;5045721;28;20633;-64
2022/11/02 06:35:50;;;;;;;5.43;3.90;;;14.70;99.90;;;;;;5046297;28;20193;-64
2022/11/02 06:38:18;;;;;;;9.20;4.90;;;14.70;99.90;;;;;;5041660;28;20208;-64
2022/11/02 06:40:53;;;;;;;6.30;3.97;;;14.70;99.90;;;;;;5047139;28;20212;-64
2022/11/02 06:43:21;;;;;;;5.23;3.80;;;14.80;99.90;;;;;;5040505;28;20231;-64
2022/11/02 06:45:48;;;;;;;3.70;3.20;;;14.70;99.90;;;;;;5042384;28;20198;-65
2022/11/02 06:48:15;;;;;;;7.90;3.97;;;14.80;99.90;;;;;;5046777;28;20228;-65
2022/11/02 06:50:44;;;;;;;3.43;3.13;;;14.80;99.90;;;;;;5041802;28;20667;-65
2022/11/02 06:53:11;;;;;;;8.30;5.13;;;14.80;99.90;;;;;;5045210;28;20212;-64
2022/11/02 06:55:38;;;;;;;11.63;6.97;;;14.80;99.90;;;;;;5042157;28;20199;-65
2022/11/02 06:58:05;;;;;;;8.43;6.40;;;14.80;99.90;;;;;;5040906;28;20268;-65
2022/11/02 07:00:32;;;;;;;8.77;5.70;;;14.80;99.90;;;;;;5042595;28;20203;-64
2022/11/02 07:03:00;;;;;;;8.70;6.03;;;14.80;99.90;;;;;;5044718;28;20205;-64
2022/11/02 07:05:27;;;;;;;8.93;6.20;;;14.80;99.90;;;;;;5030280;28;20198;-64
2022/11/02 07:07:56;;;;;;;6.93;5.00;;;14.90;99.90;;;;;;5039380;28;20284;-64
2022/11/02 07:10:24;;;;;;;6.80;5.30;;;14.90;99.90;;;;;;5036780;28;20286;-64
2022/11/02 07:12:53;;;;;;;5.70;4.83;;;14.90;99.90;;;;;;5022234;28;20574;-64
2022/11/02 07:15:20;;;;;;;7.10;4.60;;;15.00;99.90;;;;;;5045271;28;20202;-64
2022/11/02 07:17:47;;;;;;;4.53;3.87;;;14.90;99.90;;;;;;5037160;28;20681;-65
2022/11/02 07:20:14;;;;;;;8.80;4.90;;;15.00;99.90;;;;;;5021893;28;20215;-65
2022/11/02 07:22:42;;;;;;;9.80;6.27;;;15.00;99.90;;;;;;5042816;28;20267;-64
2022/11/02 07:25:11;;;;;;;8.03;5.07;;;15.00;99.90;;;;;;5038601;28;20208;-64
2022/11/02 07:27:39;;;;;;;4.87;4.27;;;15.00;99.90;;;;;;5040024;28;20683;-63
2022/11/02 07:30:07;;;;;;;7.00;4.57;;;15.00;99.90;;;;;;5037446;28;20248;-63
2022/11/02 07:32:40;;;;;;;6.83;3.87;;;15.10;99.90;;;;;;5037521;28;20763;-64
2022/11/02 07:35:09;;;;;;;5.13;4.00;;;15.10;99.90;;;;;;5037292;28;20546;-63
2022/11/02 07:37:37;;;;;;;4.30;3.27;;;15.20;99.90;;;;;;5036991;28;20897;-65
2022/11/02 07:40:06;;;;;;;4.00;3.20;;;15.20;99.90;;;;;;5036688;28;20233;-65
2022/11/02 07:42:34;;;;;;;3.23;2.93;;;15.20;99.90;;;;;;5037672;28;20200;-65
2022/11/02 07:45:05;;;;;;;3.73;3.43;;;15.30;99.90;;;;;;5026132;28;20194;-64
2022/11/02 07:47:32;;;;;;;2.33;2.20;;;15.30;99.90;;;;;;5043255;28;20198;-63
2022/11/02 07:50:00;;;;;;;2.50;2.30;;;15.30;99.90;;;;;;5036044;28;20195;-66
2022/11/02 07:52:28;;;;;;;2.87;2.23;;;15.30;99.90;;;;;;5037161;28;20191;-65
2022/11/02 07:54:55;;;;;;;2.67;2.43;;;15.40;99.90;;;;;;5036167;28;20732;-65
2022/11/02 07:57:22;;;;;;;2.87;2.60;;;15.40;99.90;;;;;;5019852;28;20671;-65
2022/11/02 07:59:51;;;;;;;3.60;2.30;;;15.40;99.90;;;;;;5031792;28;20703;-64
2022/11/02 08:02:18;;;;;;;9.90;3.60;;;15.40;99.90;;;;;;5031710;28;20209;-65
2022/11/02 08:04:45;;;;;;;5.07;3.90;;;15.40;99.90;;;;;;5040241;28;20194;-64
2022/11/02 08:07:13;;;;;;;6.07;4.30;;;15.50;99.90;;;;;;5027048;28;20289;-65
2022/11/02 08:09:40;;;;;;;11.27;5.40;;;15.50;99.90;;;;;;5046158;28;20535;-63
2022/11/02 08:12:07;;;;;;;12.53;4.87;;;15.50;99.90;;;;;;5036392;28;20222;-64
2022/11/02 08:14:35;;;;;;;8.00;4.90;;;15.50;99.90;;;;;;5039858;28;20190;-64
2022/11/02 08:17:03;;;;;;;7.60;5.13;;;15.50;99.90;;;;;;5024869;28;20213;-65
2022/11/02 08:19:31;;;;;;;9.47;4.80;;;15.60;99.90;;;;;;5046856;28;20297;-65
2022/11/02 08:22:01;;;;;;;5.37;4.17;;;15.60;99.90;;;;;;5042903;28;20222;-64
2022/11/02 08:24:28;;;;;;;8.30;4.90;;;15.60;99.90;;;;;;5022387;28;20261;-65
2022/11/02 08:26:55;;;;;;;13.40;5.40;;;15.70;99.90;;;;;;5041349;28;20578;-65
2022/11/02 08:29:23;;;;;;;10.03;5.33;;;15.80;99.90;;;;;;5039134;28;20757;-66
2022/11/02 08:31:50;;;;;;;5.10;3.70;;;15.80;99.90;;;;;;5041014;28;20292;-65
2022/11/02 08:34:21;;;;;;;15.47;5.57;;;15.80;99.90;;;;;;5025720;28;20195;-66
2022/11/02 08:36:48;;;;;;;5.77;4.13;;;15.80;99.90;;;;;;5041257;28;20243;-65
2022/11/02 08:39:15;;;;;;;6.07;3.90;;;15.90;99.90;;;;;;5037719;28;20481;-64
2022/11/02 08:41:42;;;;;;;6.17;3.83;;;15.90;99.90;;;;;;5038071;28;20222;-65
2022/11/02 08:44:10;;;;;;;3.33;2.87;;;15.90;99.90;;;;;;5040663;28;20284;-65
2022/11/02 08:46:37;;;;;;;7.27;3.93;;;16.00;99.90;;;;;;5037176;28;20221;-66
2022/11/02 08:49:04;;;;;;;4.97;3.60;;;16.00;99.90;;;;;;5035940;28;20194;-65
2022/11/02 08:51:33;;;;;;;4.70;3.23;;;16.00;99.90;;;;;;5039975;28;20195;-65
2022/11/02 08:54:00;;;;;;;4.13;2.90;;;16.00;99.90;;;;;;5043499;28;20194;-64
2022/11/02 08:56:27;;;;;;;5.57;3.77;;;16.00;99.90;;;;;;5037538;28;20197;-64
2022/11/02 08:58:54;;;;;;;10.87;4.57;;;16.00;99.90;;;;;;5032539;28;20201;-64
2022/11/02 09:01:22;;;;;;;5.57;3.80;;;16.10;99.90;;;;;;5038881;28;20202;-64
2022/11/02 09:03:49;;;;;;;5.60;3.10;;;16.10;99.90;;;;;;5037840;28;20201;-65
2022/11/02 09:06:16;;;;;;;4.50;3.10;;;16.10;99.90;;;;;;5038842;28;20720;-64
2022/11/02 09:08:45;;;;;;;3.57;2.60;;;16.20;99.90;;;;;;5033442;28;20273;-65
2022/11/02 09:11:12;;;;;;;3.70;3.13;;;16.30;99.90;;;;;;5036859;28;20635;-64
2022/11/02 09:13:39;;;;;;;8.70;4.17;;;16.30;99.90;;;;;;5040849;28;20274;-64
2022/11/02 09:16:07;;;;;;;5.30;3.70;;;16.30;99.90;;;;;;5035257;28;20199;-64
2022/11/02 09:18:34;;;;;;;8.90;3.70;;;16.30;99.90;;;;;;5030989;28;20291;-64
2022/11/02 09:21:02;;;;;;;4.80;3.07;;;16.30;99.90;;;;;;5020150;28;20226;-66
2022/11/02 09:23:29;;;;;;;3.30;2.93;;;16.30;99.90;;;;;;5035565;28;20560;-64
2022/11/02 09:25:58;;;;;;;3.90;2.60;;;16.40;99.90;;;;;;5035108;28;20258;-64
2022/11/02 09:28:25;;;;;;;4.07;3.00;;;16.40;99.90;;;;;;5032993;28;20192;-64
2022/11/02 09:30:53;;;;;;;3.70;3.10;;;16.50;99.90;;;;;;5023841;28;20666;-66
2022/11/02 09:33:20;;;;;;;3.13;2.50;;;16.50;99.90;;;;;;5035526;28;20669;-65
2022/11/02 09:35:49;;;;;;;4.50;2.50;;;16.60;99.90;;;;;;5035190;28;20204;-65
2022/11/02 09:38:18;;;;;;;2.63;2.17;;;16.60;99.90;;;;;;5037117;28;20306;-65
2022/11/02 09:40:51;;;;;;;2.33;2.13;;;16.70;99.90;;;;;;5034827;28;20266;-65
2022/11/02 09:43:29;;;;;;;2.17;1.97;;;16.70;99.90;;;;;;5037557;28;20729;-66
2022/11/02 09:46:00;;;;;;;4.23;2.70;;;16.80;99.90;;;;;;5034859;28;20675;-65
2022/11/02 09:48:32;;;;;;;4.87;2.80;;;16.90;99.90;;;;;;5037292;28;20269;-65
2022/11/02 09:51:05;;;;;;;6.63;3.13;;;17.20;99.90;;;;;;5038128;28;20200;-65
2022/11/02 09:53:41;;;;;;;2.33;2.00;;;17.60;99.90;;;;;;5038945;28;20196;-65
2022/11/02 09:56:12;;;;;;;2.47;2.23;;;17.90;99.90;;;;;;5031334;28;20616;-67
2022/11/02 09:58:43;;;;;;;1.63;1.52;;;18.10;99.90;;;;;;5035236;28;20285;-64
2022/11/02 10:01:23;;;;;;;4.63;2.15;;;18.30;99.90;;;;;;5029598;28;20298;-66
2022/11/02 10:04:26;;;;;;;5.15;2.33;;;18.40;99.90;;;;;;5041533;28;20192;-65
2022/11/02 10:07:02;;;;;;;3.42;2.15;;;18.30;99.90;;;;;;5028390;28;20213;-64
2022/11/02 10:09:35;;;;;;;3.30;2.60;;;18.30;99.90;;;;;;5026056;28;20197;-64
2022/11/02 10:12:09;;;;;;;3.97;2.42;;;18.30;99.90;;;;;;5038788;28;20263;-65
2022/11/02 10:14:45;;;;;;;4.35;2.38;;;18.20;99.90;;;;;;5041048;28;20194;-65
2022/11/02 10:17:15;;;;;;;3.35;2.15;;;18.10;99.90;;;;;;5040503;28;20194;-64
2022/11/02 10:19:46;;;;;;;4.25;2.25;;;18.00;99.90;;;;;;5033709;28;20205;-64
2022/11/02 10:22:15;;;;;;;2.95;2.30;;;18.00;99.90;;;;;;5038934;28;20241;-64
2022/11/02 10:24:44;;;;;;;4.40;2.22;;;18.10;99.90;;;;;;5040214;28;20229;-65
2022/11/02 10:27:18;;;;;;;3.45;2.58;;;18.00;99.90;;;;;;5044936;28;20206;-66
2022/11/02 10:29:52;;;;;;;4.35;2.30;;;18.00;99.90;;;;;;5042579;28;20200;-65
2022/11/02 10:32:19;;;;;;;2.45;2.10;;;17.90;99.90;;;;;;5039850;28;20641;-66
2022/11/02 10:34:47;;;;;;;2.78;2.47;;;17.70;99.90;;;;;;5041946;28;20478;-66
2022/11/02 10:37:30;;;;;;;4.35;2.75;;;17.70;99.90;;;;;;5043731;28;20209;-66
2022/11/02 10:40:12;;;;;;;5.78;2.58;;;17.60;99.90;;;;;;5040742;28;20243;-66
2022/11/02 10:42:59;;;;;;;5.90;2.50;;;17.50;99.90;;;;;;5035019;28;20215;-65
2022/11/02 10:46:00;;;;;;;3.17;2.38;;;17.40;99.90;;;;;;5032570;28;20209;-64
2022/11/02 10:48:37;;;;;;;2.50;1.95;;;17.30;99.90;;;;;;5043868;28;20194;-65
2022/11/02 10:51:11;;;;;;;2.65;2.45;;;17.30;99.90;;;;;;5036596;28;20322;-65
2022/11/02 10:53:45;;;;;;;7.47;2.60;;;17.30;99.90;;;;;;5037334;28;20677;-66
2022/11/02 10:56:19;;;;;;;7.35;3.13;;;17.30;99.90;;;;;;5027512;28;20221;-66
2022/11/02 10:58:54;;;;;;;3.70;2.30;;;17.30;99.90;;;;;;5039701;28;20186;-66
2022/11/02 11:01:23;;;;;;;7.07;2.58;;;17.20;99.90;;;;;;5044306;28;20972;-64
2022/11/02 11:03:58;;;;;;;4.35;3.38;;;17.20;99.90;;;;;;5042740;28;20240;-66
2022/11/02 11:06:31;;;;;;;3.95;3.00;;;17.20;99.90;;;;;;5040251;28;20190;-64
2022/11/02 11:09:05;;;;;;;4.03;3.00;;;17.20;99.90;;;;;;5038465;28;20198;-65
2022/11/02 11:11:34;;;;;;;6.75;3.45;;;17.20;99.90;;;;;;5033588;28;21525;-64
2022/11/02 11:14:05;;;;;;;7.85;3.83;;;17.20;99.90;;;;;;5042011;28;20679;-67
2022/11/02 11:16:40;;;;;;;6.93;3.92;;;17.10;99.90;;;;;;5032582;28;20201;-65
2022/11/02 11:19:20;;;;;;;3.63;3.25;;;17.10;99.90;;;;;;5037626;28;20205;-66
2022/11/02 11:21:49;;;;;;;4.97;3.57;;;17.00;99.90;;;;;;5043670;28;20210;-65
2022/11/02 11:24:25;;;;;;;7.38;4.13;;;17.00;99.90;;;;;;5036197;28;20225;-66
2022/11/02 11:27:17;;;;;;;10.18;4.80;;;17.00;99.90;;;;;;5039044;28;20220;-65
2022/11/02 11:29:49;;;;;;;9.63;5.03;;;17.00;99.90;;;;;;5040209;28;20289;-66
2022/11/02 11:32:21;;;;;;;11.77;5.33;;;16.90;99.90;;;;;;5041561;28;21001;-65
2022/11/02 11:34:56;;;;;;;8.68;5.07;;;16.80;99.90;;;;;;5042825;28;20698;-64
2022/11/02 11:37:24;;;;;;;10.93;5.38;;;16.80;99.90;;;;;;5041543;28;20200;-66
2022/11/02 11:39:55;;;;;;;7.68;4.57;;;16.70;99.90;;;;;;5043498;28;20225;-64
2022/11/02 11:42:26;;;;;;;14.70;6.30;;;16.70;99.90;;;;;;5042873;28;20680;-65
2022/11/02 11:45:06;;;;;;;9.93;6.00;;;16.70;99.90;;;;;;5049217;28;20197;-65
2022/11/02 11:47:38;;;;;;;9.33;6.43;;;16.70;99.90;;;;;;5043966;28;20260;-65
2022/11/02 11:50:12;;;;;;;10.20;6.13;;;16.60;99.90;;;;;;5043346;28;20554;-65
2022/11/02 11:52:40;;;;;;;13.70;6.37;;;16.60;99.90;;;;;;5040083;28;20201;-66
2022/11/02 11:55:21;;;;;;;11.63;5.77;;;16.60;99.90;;;;;;5044215;28;20197;-65
2022/11/02 11:58:05;;;;;;;11.90;6.18;;;16.50;99.90;;;;;;5042363;28;20668;-65
2022/11/02 12:00:33;;;;;;;10.07;4.90;;;16.50;99.90;;;;;;5043547;28;20208;-65
2022/11/02 12:03:08;;;;;;;7.67;4.50;;;16.40;99.90;;;;;;5048939;28;20730;-65
2022/11/02 12:05:46;;;;;;;12.35;6.22;;;16.40;99.90;;;;;;5038488;28;20231;-65
2022/11/02 12:08:42;;;;;;;10.80;6.17;;;16.30;99.90;;;;;;5042274;28;20214;-65
2022/11/02 12:11:26;;;;;;;10.77;5.50;;;16.30;99.90;;;;;;5047139;28;20230;-65
2022/11/02 12:14:07;;;;;;;11.82;6.30;;;16.20;99.90;;;;;;5045065;28;20286;-65
2022/11/02 12:16:53;;;;;;;10.17;5.23;;;16.20;99.90;;;;;;5038334;28;20302;-65
2022/11/02 12:19:31;;;;;;;10.47;5.40;;;16.10;99.90;;;;;;5042679;28;20689;-65
2022/11/02 12:22:07;;;;;;;8.87;5.20;;;16.10;99.90;;;;;;5041384;28;20211;-65
2022/11/02 12:24:51;;;;;;;9.97;5.33;;;16.10;99.90;;;;;;5032450;28;20228;-65
2022/11/02 12:27:29;;;;;;;8.90;5.03;;;16.10;99.90;;;;;;5034033;28;20332;-65
2022/11/02 12:30:06;;;;;;;5.53;4.13;;;16.10;99.90;;;;;;5038845;28;20643;-64
2022/11/02 12:33:00;;;;;;;8.00;4.07;;;16.10;99.90;;;;;;5042933;28;20279;-64
2022/11/02 12:35:55;;;;;;;6.47;4.27;;;16.10;99.90;;;;;;5044895;28;20222;-65
2022/11/02 12:38:48;;;;;;;6.50;4.37;;;16.10;99.90;;;;;;5044044;28;20303;-65
2022/11/02 12:41:36;;;;;;;8.47;4.73;;;16.10;99.90;;;;;;5030707;28;20238;-65
2022/11/02 12:44:11;;;;;;;11.90;5.37;;;16.10;99.90;;;;;;5044975;28;20223;-64
2022/11/02 12:46:44;;;;;;;5.40;3.30;;;16.10;99.90;;;;;;5040249;28;20295;-64
2022/11/02 12:49:26;;;;;;;8.50;3.97;;;16.10;99.90;;;;;;5038287;28;20188;-64
2022/11/02 12:52:03;;;;;;;9.53;3.87;;;16.10;99.90;;;;;;5044427;28;20238;-64
2022/11/02 12:54:36;;;;;;;8.23;4.50;;;16.10;99.90;;;;;;5038870;28;20234;-65
2022/11/02 12:57:04;;;;;;;6.33;4.17;;;16.10;99.90;;;;;;5043497;28;20276;-65
2022/11/02 12:59:33;;;;;;;8.37;4.67;;;16.20;99.90;;;;;;5038829;28;20196;-65
2022/11/02 13:02:06;;;;;;;7.57;3.53;;;16.10;99.90;;;;;;5040942;28;20227;-65
2022/11/02 13:04:42;;;;;;;6.05;4.15;;;16.10;99.90;;;;;;5033146;28;20646;-65
2022/11/02 13:07:15;;;;;;;7.80;4.27;;;16.20;99.90;;;;;;5042778;28;20194;-65
2022/11/02 13:09:56;;;;;;;12.63;5.10;;;16.20;99.90;;;;;;5047885;28;20565;-65
2022/11/02 13:12:25;;;;;;;7.17;3.83;;;16.20;99.90;;;;;;5040289;28;20192;-65
2022/11/02 13:14:55;;;;;;;12.80;4.77;;;16.20;99.90;;;;;;5045109;28;20668;-64
2022/11/02 13:17:26;;;;;;;5.70;4.07;;;16.10;99.90;;;;;;5041911;28;20660;-64